createdAt,value
2023-05-13T00:01:39.483Z,166.67
2023-05-13T00:04:07.268Z,197.40
2023-05-13T00:06:35.609Z,377.00
2023-05-13T00:09:04.849Z,70.50
2023-05-13T00:11:32.141Z,300.00
2023-05-13T00:13:59.432Z,143.60
2023-05-13T00:16:26.860Z,2229.50
2023-05-13T00:18:54.446Z,807.20
2023-05-13T00:21:21.810Z,45.25
2023-05-13T00:23:49.117Z,62.00
2023-05-13T00:26:18.063Z,33.50
2023-05-13T00:28:45.424Z,39.00
2023-05-13T00:31:12.631Z,38.25
2023-05-13T00:33:39.863Z,83.25
2023-05-13T00:36:08.351Z,456.00
2023-05-13T00:38:35.633Z,30.25
2023-05-13T00:41:03.421Z,32.50
2023-05-13T00:43:32.393Z,29.00
2023-05-13T00:46:00.869Z,24.50
2023-05-13T00:48:28.143Z,29.25
2023-05-13T00:50:56.324Z,24.75
2023-05-13T00:53:23.804Z,23.00
2023-05-13T00:55:50.678Z,23.75
2023-05-13T00:58:18.266Z,20.50
2023-05-13T01:01:04.764Z,18.50
2023-05-13T01:03:39.475Z,21.00
2023-05-13T01:06:12.565Z,19.25
2023-05-13T01:08:47.534Z,24.00
2023-05-13T01:11:21.700Z,25.25
2023-05-13T01:13:53.106Z,19.75
2023-05-13T01:16:30.435Z,22.50
2023-05-13T01:19:02.271Z,23.00
2023-05-13T01:21:36.123Z,28.00
2023-05-13T01:24:03.436Z,64.00
2023-05-13T01:26:30.738Z,31.75
2023-05-13T01:28:57.960Z,48.00
2023-05-13T01:31:26.437Z,41.67
2023-05-13T01:33:54.275Z,41.25
2023-05-13T01:36:21.543Z,35.50
2023-05-13T01:38:51.778Z,37.25
2023-05-13T01:41:19.355Z,39.50
2023-05-13T01:43:46.573Z,35.50
2023-05-13T01:46:14.037Z,52.00
2023-05-13T01:48:41.446Z,49.00
2023-05-13T01:51:09.165Z,48.75
2023-05-13T01:53:36.576Z,63.75
2023-05-13T01:56:08.984Z,65.00
2023-05-13T01:58:36.209Z,69.25
2023-05-13T02:01:04.215Z,64.67
2023-05-13T02:03:31.533Z,57.50
2023-05-13T02:05:58.886Z,59.75
2023-05-13T02:08:26.347Z,79.33
2023-05-13T02:10:56.750Z,75.33
2023-05-13T02:13:26.272Z,75.00
2023-05-13T02:15:53.654Z,61.00
2023-05-13T02:18:21.041Z,55.33
2023-05-13T02:20:48.324Z,70.33
2023-05-13T02:23:15.689Z,56.33
2023-05-13T02:25:43.590Z,67.00
2023-05-13T02:28:11.086Z,76.75
2023-05-13T02:30:39.939Z,78.00
2023-05-13T02:33:07.242Z,81.67
2023-05-13T02:35:34.501Z,68.00
2023-05-13T02:38:01.817Z,61.00
2023-05-13T02:40:29.199Z,53.67
2023-05-13T02:42:56.507Z,60.33
2023-05-13T02:45:23.984Z,62.33
2023-05-13T02:47:52.970Z,64.00
2023-05-13T02:50:20.983Z,51.75
2023-05-13T02:52:49.038Z,46.50
2023-05-13T02:55:16.381Z,33.00
2023-05-13T02:57:43.755Z,25.00
2023-05-13T03:00:12.202Z,28.25
2023-05-13T03:02:39.462Z,22.50
2023-05-13T03:05:09.181Z,24.75
2023-05-13T03:07:36.951Z,19.25
2023-05-13T03:10:05.046Z,19.75
2023-05-13T03:12:32.349Z,53.25
2023-05-13T03:14:59.698Z,22.50
2023-05-13T03:17:26.868Z,22.50
2023-05-13T03:19:54.514Z,20.00
2023-05-13T03:22:24.658Z,22.75
2023-05-13T03:24:51.844Z,27.00
2023-05-13T03:27:19.747Z,20.00
2023-05-13T03:29:47.289Z,39.50
2023-05-13T03:32:14.369Z,24.50
2023-05-13T03:34:41.586Z,22.00
2023-05-13T03:37:09.200Z,44.50
2023-05-13T03:39:37.832Z,39.75
2023-05-13T03:42:05.503Z,26.50
2023-05-13T03:44:32.292Z,25.75
2023-05-13T03:46:59.725Z,21.00
2023-05-13T03:49:26.728Z,27.25
2023-05-13T03:51:54.219Z,23.00
2023-05-13T03:54:21.357Z,29.75
2023-05-13T03:56:49.440Z,23.00
2023-05-13T03:59:16.651Z,31.50
2023-05-13T04:01:43.837Z,36.50
2023-05-13T04:04:11.473Z,39.50
2023-05-13T04:06:39.022Z,41.25
2023-05-13T04:09:06.527Z,32.25
2023-05-13T04:11:33.985Z,31.75
2023-05-13T04:14:02.797Z,29.00
2023-05-13T04:16:30.117Z,22.50
2023-05-13T04:18:57.240Z,38.00
2023-05-13T04:21:24.779Z,31.75
2023-05-13T04:23:51.964Z,20.50
2023-05-13T04:26:19.357Z,40.75
2023-05-13T04:28:46.609Z,27.75
2023-05-13T04:31:15.587Z,32.25
2023-05-13T04:33:43.338Z,35.25
2023-05-13T04:36:11.382Z,31.50
2023-05-13T04:38:39.873Z,27.25
2023-05-13T04:41:07.110Z,26.50
2023-05-13T04:43:34.404Z,30.00
2023-05-13T04:46:01.642Z,29.50
2023-05-13T04:48:30.667Z,27.75
2023-05-13T04:50:58.498Z,24.25
2023-05-13T04:53:26.803Z,25.50
2023-05-13T04:55:54.417Z,24.50
2023-05-13T04:58:22.266Z,27.75
2023-05-13T05:00:49.640Z,31.00
2023-05-13T05:03:16.748Z,23.25
2023-05-13T05:05:45.782Z,31.25
2023-05-13T05:08:13.197Z,28.75
2023-05-13T05:10:40.385Z,22.75
2023-05-13T05:13:08.586Z,28.50
2023-05-13T05:15:35.845Z,39.25
2023-05-13T05:18:03.152Z,37.50
2023-05-13T05:20:31.199Z,74.67
2023-05-13T05:23:00.631Z,50.50
2023-05-13T05:25:27.776Z,44.25
2023-05-13T05:27:55.389Z,46.75
2023-05-13T05:30:22.962Z,56.75
2023-05-13T05:32:50.641Z,39.00
2023-05-13T05:35:18.183Z,27.25
2023-05-13T05:37:45.667Z,24.25
2023-05-13T05:40:15.030Z,26.25
2023-05-13T05:42:42.851Z,31.50
2023-05-13T05:45:10.949Z,34.75
2023-05-13T05:47:38.533Z,27.75
2023-05-13T05:50:06.842Z,52.25
2023-05-13T05:52:34.035Z,26.50
2023-05-13T05:55:01.146Z,22.00
2023-05-13T05:57:30.531Z,23.00
2023-05-13T05:59:57.966Z,23.25
2023-05-13T06:02:25.286Z,23.25
2023-05-13T06:04:52.784Z,20.25
2023-05-13T06:07:20.094Z,33.20
2023-05-13T06:09:47.545Z,299.20
2023-05-13T06:12:14.974Z,42.25
2023-05-13T06:14:43.692Z,55.20
2023-05-13T06:17:11.024Z,978.00
2023-05-13T06:19:38.759Z,3003.40
2023-05-13T06:22:06.021Z,55.00
2023-05-13T06:24:33.265Z,59.00
2023-05-13T06:27:00.846Z,301.20
2023-05-13T06:29:28.557Z,94.40
2023-05-13T06:31:57.315Z,2703.40
2023-05-13T06:34:25.013Z,24.75
2023-05-13T06:36:52.155Z,24.25
2023-05-13T06:39:20.066Z,823.60
2023-05-13T06:41:47.371Z,204.00
2023-05-13T06:44:15.263Z,187.80
2023-05-13T06:46:42.506Z,1540.60
2023-05-13T06:49:11.398Z,1884.80
2023-05-13T06:51:38.563Z,834.80
2023-05-13T06:54:05.938Z,611.00
2023-05-13T06:56:34.676Z,2213.80
2023-05-13T06:59:01.937Z,2336.00
2023-05-13T07:01:29.610Z,1384.20
2023-05-13T07:03:57.407Z,424.80
2023-05-13T07:06:26.496Z,1523.20
2023-05-13T07:08:53.906Z,39.25
2023-05-13T07:11:21.566Z,43.50
2023-05-13T07:13:49.268Z,693.20
2023-05-13T07:16:17.923Z,925.50
2023-05-13T07:18:45.551Z,593.50
2023-05-13T07:21:14.392Z,460.75
2023-05-13T07:23:44.542Z,813.75
2023-05-13T07:26:12.337Z,53.80
2023-05-13T07:28:39.637Z,82.20
2023-05-13T07:31:06.956Z,84.80
2023-05-13T07:33:34.696Z,319.20
2023-05-13T07:36:01.946Z,538.25
2023-05-13T07:38:29.294Z,3093.60
2023-05-13T07:40:58.486Z,2166.60
2023-05-13T07:43:25.752Z,802.00
2023-05-13T07:45:52.994Z,2371.60
2023-05-13T07:48:20.851Z,1956.80
2023-05-13T07:50:48.044Z,107.60
2023-05-13T07:53:15.748Z,1132.25
2023-05-13T07:55:44.368Z,2316.60
2023-05-13T07:58:13.754Z,620.50
2023-05-13T08:00:41.322Z,1220.40
2023-05-13T08:03:08.659Z,53.60
2023-05-13T08:05:35.939Z,107.00
2023-05-13T08:08:03.330Z,98.40
2023-05-13T08:10:30.582Z,857.20
2023-05-13T08:12:58.018Z,2726.50
2023-05-13T08:15:27.810Z,1715.40
2023-05-13T08:17:55.531Z,1679.25
2023-05-13T08:20:22.962Z,205.60
2023-05-13T08:22:50.398Z,1140.75
2023-05-13T08:25:18.177Z,1399.80
2023-05-13T08:27:45.524Z,3095.00
2023-05-13T08:30:14.300Z,801.75
2023-05-13T08:32:43.433Z,99.40
2023-05-13T08:35:11.097Z,116.00
2023-05-13T08:37:38.298Z,2458.80
2023-05-13T08:40:07.087Z,1352.00
2023-05-13T08:42:38.555Z,2452.20
2023-05-13T08:45:09.548Z,1854.80
2023-05-13T08:47:50.361Z,3119.40
2023-05-13T08:50:17.888Z,2833.25
2023-05-13T08:52:45.502Z,2647.00
2023-05-13T08:55:13.741Z,1824.00
2023-05-13T08:57:41.059Z,2773.60
2023-05-13T09:00:09.342Z,2431.80
2023-05-13T09:02:36.280Z,2650.40
2023-05-13T09:05:07.113Z,385.00
2023-05-13T09:07:35.275Z,3564.50
2023-05-13T09:10:02.885Z,2702.40
2023-05-13T09:12:46.969Z,3003.50
2023-05-13T09:15:15.968Z,1270.20
2023-05-13T09:17:44.796Z,2305.75
2023-05-13T09:20:15.020Z,1040.20
2023-05-13T09:22:45.992Z,1417.00
2023-05-13T09:25:14.329Z,1527.40
2023-05-13T09:27:43.891Z,343.00
2023-05-13T09:30:11.673Z,1458.80
2023-05-13T09:32:39.658Z,1567.00
2023-05-13T09:35:24.551Z,1833.20
2023-05-13T09:37:52.002Z,2251.50
2023-05-13T09:40:19.784Z,2036.00
2023-05-13T09:42:48.260Z,1441.80
2023-05-13T09:45:17.263Z,925.25
2023-05-13T09:47:44.593Z,2894.60
2023-05-13T09:50:14.294Z,3044.00
2023-05-13T09:52:41.734Z,3509.40
2023-05-13T09:55:10.005Z,3489.80
2023-05-13T09:57:37.542Z,3496.80
2023-05-13T10:00:06.278Z,3391.50
2023-05-13T10:02:34.066Z,1498.60
2023-05-13T10:05:03.286Z,2436.75
2023-05-13T10:07:32.009Z,434.60
2023-05-13T10:10:03.131Z,82.20
2023-05-13T10:12:34.016Z,1757.60
2023-05-13T10:15:03.346Z,2869.80
2023-05-13T10:17:32.292Z,828.50
2023-05-13T10:20:00.540Z,1111.20
2023-05-13T10:22:29.852Z,52.75
2023-05-13T10:25:00.934Z,36.50
2023-05-13T10:27:29.797Z,31.33
2023-05-13T10:29:58.642Z,33.60
2023-05-13T10:32:27.158Z,21.50
2023-05-13T10:35:01.425Z,76.50
2023-05-13T10:37:50.329Z,32.75
2023-05-13T10:40:43.565Z,34.25
2023-05-13T10:43:17.482Z,36.00
2023-05-13T10:45:46.524Z,16.00
2023-05-13T10:48:15.551Z,20.20
2023-05-13T10:50:52.904Z,45.60
2023-05-13T10:53:23.208Z,41.25
2023-05-13T10:55:56.456Z,54.25
2023-05-13T10:58:30.359Z,130.75
2023-05-13T11:01:13.552Z,720.25
2023-05-13T11:03:41.695Z,72.20
2023-05-13T11:06:17.577Z,40.67
2023-05-13T11:08:48.281Z,41.20
2023-05-13T11:11:35.092Z,34.75
2023-05-13T11:14:16.162Z,50.80
2023-05-13T11:16:48.305Z,51.00
2023-05-13T11:19:27.290Z,51.60
2023-05-13T11:21:55.973Z,127.50
2023-05-13T11:24:24.714Z,114.00
2023-05-13T11:26:55.508Z,408.75
2023-05-13T11:29:30.812Z,237.50
2023-05-13T11:32:00.599Z,387.00
2023-05-13T11:34:28.347Z,46.25
2023-05-13T11:37:06.481Z,55.25
2023-05-13T11:39:33.601Z,1073.25
2023-05-13T11:42:07.195Z,71.75
2023-05-13T11:44:35.022Z,66.25
2023-05-13T11:47:03.810Z,665.80
2023-05-13T11:49:41.158Z,43.67
2023-05-13T11:52:09.822Z,371.50
2023-05-13T11:54:44.438Z,27.25
2023-05-13T11:57:23.908Z,41.25
2023-05-13T11:59:54.123Z,43.33
2023-05-13T12:02:22.786Z,36.00
2023-05-13T12:04:50.858Z,20.40
2023-05-13T12:07:21.052Z,22.80
2023-05-13T12:09:49.419Z,15.00
2023-05-13T12:12:17.900Z,22.80
2023-05-13T12:14:47.586Z,18.60
2023-05-13T12:17:14.945Z,20.80
2023-05-13T12:20:05.921Z,18.20
2023-05-13T12:22:33.974Z,17.40
2023-05-13T12:25:02.954Z,15.40
2023-05-13T12:27:30.686Z,32.00
2023-05-13T12:30:00.222Z,25.00
2023-05-13T12:32:27.371Z,25.00
2023-05-13T12:34:55.030Z,28.00
2023-05-13T12:37:25.350Z,31.50
2023-05-13T12:40:10.342Z,30.50
2023-05-13T12:42:37.668Z,28.75
2023-05-13T12:45:07.495Z,25.80
2023-05-13T12:47:49.399Z,22.20
2023-05-13T12:50:16.899Z,17.20
2023-05-13T12:52:44.144Z,22.00
2023-05-13T12:55:11.860Z,16.60
2023-05-13T12:57:40.562Z,20.75
2023-05-13T13:00:11.791Z,15.80
2023-05-13T13:02:40.865Z,20.25
2023-05-13T13:05:09.129Z,22.00
2023-05-13T13:07:36.544Z,17.60
2023-05-13T13:10:05.025Z,15.25
2023-05-13T13:12:32.261Z,20.25
2023-05-13T13:14:59.483Z,27.00
2023-05-13T13:17:28.421Z,22.00
2023-05-13T13:19:55.636Z,15.20
2023-05-13T13:22:23.274Z,32.00
2023-05-13T13:24:50.809Z,27.25
2023-05-13T13:27:18.589Z,17.50
2023-05-13T13:29:45.923Z,21.50
2023-05-13T13:32:14.132Z,39.25
2023-05-13T13:34:42.842Z,20.75
2023-05-13T13:37:10.521Z,27.25
2023-05-13T13:39:37.691Z,22.40
2023-05-13T13:42:05.838Z,23.75
2023-05-13T13:44:33.337Z,22.20
2023-05-13T13:47:00.667Z,19.20
2023-05-13T13:49:28.019Z,34.25
2023-05-13T13:51:57.124Z,26.75
2023-05-13T13:54:24.491Z,21.75
2023-05-13T13:56:52.126Z,35.75
2023-05-13T13:59:19.648Z,37.50
2023-05-13T14:01:46.900Z,30.00
2023-05-13T14:04:16.220Z,30.75
2023-05-13T14:06:44.970Z,27.25
2023-05-13T14:09:13.679Z,28.25
2023-05-13T14:11:40.830Z,33.25
2023-05-13T14:14:08.710Z,30.50
2023-05-13T14:16:36.349Z,34.00
2023-05-13T14:19:03.832Z,35.50
2023-05-13T14:21:31.317Z,28.25
2023-05-13T14:23:58.629Z,20.20
2023-05-13T14:26:27.482Z,19.20
2023-05-13T14:28:55.119Z,27.25
2023-05-13T14:31:22.777Z,20.75
2023-05-13T14:33:50.328Z,30.75
2023-05-13T14:36:17.901Z,20.20
2023-05-13T14:38:45.048Z,26.50
2023-05-13T14:41:12.659Z,19.20
2023-05-13T14:43:41.881Z,18.20
2023-05-13T14:46:09.178Z,20.20
2023-05-13T14:48:36.563Z,22.20
2023-05-13T14:51:04.457Z,25.50
2023-05-13T14:53:31.577Z,30.00
2023-05-13T14:55:59.334Z,22.50
2023-05-13T14:58:26.685Z,24.00
2023-05-13T15:00:54.936Z,21.80
2023-05-13T15:03:22.156Z,21.50
2023-05-13T15:05:49.151Z,24.75
2023-05-13T15:08:16.405Z,17.00
2023-05-13T15:10:43.213Z,16.20
2023-05-13T15:13:10.035Z,17.80
2023-05-13T15:15:37.696Z,16.40
2023-05-13T15:18:06.800Z,14.60
2023-05-13T15:20:33.844Z,12.20
2023-05-13T15:23:00.828Z,15.60
2023-05-13T15:25:27.874Z,11.00
2023-05-13T15:27:55.596Z,11.40
2023-05-13T15:30:23.275Z,16.80
2023-05-13T15:32:50.312Z,12.60
2023-05-13T15:35:19.262Z,13.80
2023-05-13T15:37:45.977Z,12.40
2023-05-13T15:40:13.161Z,12.60
2023-05-13T15:42:40.388Z,11.20
2023-05-13T15:45:08.532Z,9.40
2023-05-13T15:47:35.818Z,7.60
2023-05-13T15:50:04.112Z,10.40
2023-05-13T15:52:32.665Z,9.60
2023-05-13T15:54:59.853Z,10.40
2023-05-13T15:57:27.155Z,15.20
2023-05-13T15:59:54.437Z,19.50
2023-05-13T16:02:21.664Z,12.60
2023-05-13T16:04:49.417Z,13.00
2023-05-13T16:07:16.560Z,18.00
2023-05-13T16:09:45.219Z,14.75
2023-05-13T16:12:12.797Z,21.50
2023-05-13T16:14:39.915Z,13.20
2023-05-13T16:17:07.186Z,14.00
2023-05-13T16:19:34.509Z,14.20
2023-05-13T16:22:24.856Z,19.00
2023-05-13T16:24:53.801Z,19.00
2023-05-13T16:27:21.003Z,14.00
2023-05-13T16:29:48.714Z,16.60
2023-05-13T16:32:16.132Z,8.20
2023-05-13T16:34:43.271Z,16.60
2023-05-13T16:37:10.525Z,14.60
2023-05-13T16:39:38.623Z,13.80
2023-05-13T16:42:08.381Z,12.00
2023-05-13T16:44:36.054Z,14.60
2023-05-13T16:47:03.422Z,16.80
2023-05-13T16:49:30.640Z,23.00
2023-05-13T16:51:58.431Z,12.80
2023-05-13T16:54:25.857Z,14.20
2023-05-13T16:56:53.366Z,11.00
2023-05-13T16:59:22.728Z,11.40
2023-05-13T17:01:50.565Z,14.20
2023-05-13T17:04:17.384Z,11.60
2023-05-13T17:06:44.990Z,15.40
2023-05-13T17:09:12.662Z,12.60
2023-05-13T17:11:40.258Z,10.20
2023-05-13T17:14:07.848Z,12.40
2023-05-13T17:16:37.185Z,10.20
2023-05-13T17:19:04.653Z,11.40
2023-05-13T17:21:32.072Z,11.00
2023-05-13T17:23:59.717Z,11.60
2023-05-13T17:26:27.293Z,14.00
2023-05-13T17:28:55.806Z,14.80
2023-05-13T17:31:23.895Z,13.80
2023-05-13T17:33:53.171Z,11.00
2023-05-13T17:36:20.589Z,9.80
2023-05-13T17:38:48.522Z,10.60
2023-05-13T17:41:15.838Z,12.80
2023-05-13T17:43:43.103Z,13.00
2023-05-13T17:46:10.644Z,9.60
2023-05-13T17:48:38.220Z,9.80
2023-05-13T17:51:07.042Z,10.20
2023-05-13T17:53:35.123Z,10.80
2023-05-13T17:56:03.077Z,10.80
2023-05-13T17:58:30.273Z,12.20
2023-05-13T18:00:57.971Z,12.40
2023-05-13T18:03:25.228Z,12.20
2023-05-13T18:05:52.942Z,13.00
2023-05-13T18:08:21.829Z,8.40
2023-05-13T18:10:49.230Z,13.00
2023-05-13T18:13:16.818Z,10.80
2023-05-13T18:15:44.389Z,13.40
2023-05-13T18:18:11.564Z,10.00
2023-05-13T18:20:38.662Z,10.00
2023-05-13T18:23:05.941Z,13.60
2023-05-13T18:25:39.976Z,13.40
2023-05-13T18:28:12.646Z,11.80
2023-05-13T18:30:40.095Z,12.00
2023-05-13T18:33:07.482Z,25.20
2023-05-13T18:35:35.145Z,16.40
2023-05-13T18:38:02.372Z,19.20
2023-05-13T18:40:29.736Z,12.80
2023-05-13T18:42:58.646Z,16.80
2023-05-13T18:45:25.973Z,11.80
2023-05-13T18:47:53.245Z,15.80
2023-05-13T18:50:21.432Z,12.40
2023-05-13T18:52:48.764Z,13.00
2023-05-13T18:55:16.163Z,11.00
2023-05-13T18:57:43.573Z,13.60
2023-05-13T19:00:13.921Z,13.20
2023-05-13T19:02:41.695Z,10.40
2023-05-13T19:05:09.916Z,14.60
2023-05-13T19:07:37.652Z,17.80
2023-05-13T19:10:05.759Z,43.67
2023-05-13T19:12:33.335Z,18.00
2023-05-13T19:15:00.528Z,410.25
2023-05-13T19:17:30.655Z,79.20
2023-05-13T19:19:58.814Z,52.40
2023-05-13T19:22:26.524Z,46.50
2023-05-13T19:24:53.814Z,45.00
2023-05-13T19:27:21.211Z,54.80
2023-05-13T19:29:48.476Z,262.20
2023-05-13T19:32:15.776Z,77.20
2023-05-13T19:34:45.223Z,74.60
2023-05-13T19:37:12.389Z,87.20
2023-05-13T19:39:39.562Z,92.80
2023-05-13T19:42:07.315Z,1804.80
2023-05-13T19:44:34.658Z,90.80
2023-05-13T19:47:02.620Z,455.20
2023-05-13T19:49:30.062Z,503.00
2023-05-13T19:51:58.695Z,107.80
2023-05-13T19:54:25.927Z,1127.80
2023-05-13T19:56:54.266Z,104.00
2023-05-13T19:59:21.414Z,735.80
2023-05-13T20:01:48.628Z,98.50
2023-05-13T20:04:16.064Z,2032.40
2023-05-13T20:06:43.331Z,526.00
2023-05-13T20:09:12.504Z,326.60
2023-05-13T20:11:39.920Z,599.80
2023-05-13T20:14:07.261Z,1151.20
2023-05-13T20:16:35.295Z,2663.60
2023-05-13T20:19:03.021Z,408.20
2023-05-13T20:21:30.325Z,1469.80
2023-05-13T20:23:58.157Z,2109.40
2023-05-13T20:26:27.446Z,3337.20
2023-05-13T20:28:54.583Z,813.60
2023-05-13T20:31:21.874Z,3283.20
2023-05-13T20:33:49.531Z,2175.40
2023-05-13T20:36:17.381Z,1495.40
2023-05-13T20:38:44.951Z,943.40
2023-05-13T20:41:12.331Z,1150.00
2023-05-13T20:43:41.273Z,3097.40
2023-05-13T20:46:08.770Z,1497.00
2023-05-13T20:48:36.482Z,1852.60
2023-05-13T20:51:05.204Z,2873.75
2023-05-13T20:53:32.822Z,1513.40
2023-05-13T20:56:00.440Z,2549.80
2023-05-13T20:58:28.010Z,1863.25
2023-05-13T21:00:57.546Z,2287.75
2023-05-13T21:03:25.540Z,3545.20
2023-05-13T21:05:52.700Z,3620.25
2023-05-13T21:08:19.994Z,2603.00
2023-05-13T21:10:47.761Z,3203.20
2023-05-13T21:13:15.367Z,3465.00
2023-05-13T21:15:42.763Z,3366.25
2023-05-13T21:18:11.513Z,3214.60
2023-05-13T21:20:39.006Z,3393.40
2023-05-13T21:23:06.250Z,3568.80
2023-05-13T21:25:34.190Z,3660.20
2023-05-13T21:28:01.553Z,3643.75
2023-05-13T21:30:29.046Z,2599.00
2023-05-13T21:32:56.698Z,1874.60
2023-05-13T21:35:26.702Z,1876.20
2023-05-13T21:37:58.576Z,322.00
2023-05-13T21:40:32.375Z,816.20
2023-05-13T21:42:59.635Z,3386.50
2023-05-13T21:45:27.024Z,1549.20
2023-05-13T21:47:54.707Z,2926.80
2023-05-13T21:50:23.087Z,2249.20
2023-05-13T21:52:55.174Z,2239.40
2023-05-13T21:55:22.748Z,2521.40
2023-05-13T21:57:50.397Z,2245.00
2023-05-13T22:00:18.649Z,2058.60
2023-05-13T22:02:46.930Z,3675.00
2023-05-13T22:05:14.825Z,2904.75
2023-05-13T22:07:42.436Z,1917.40
2023-05-13T22:10:12.992Z,2790.75
2023-05-13T22:12:40.148Z,2994.40
2023-05-13T22:15:08.480Z,2548.75
2023-05-13T22:17:37.457Z,1808.60
2023-05-13T22:20:05.499Z,2624.80
2023-05-13T22:22:33.352Z,3195.80
2023-05-13T22:25:00.999Z,3733.20
2023-05-13T22:27:31.570Z,1576.80
2023-05-13T22:29:58.748Z,3020.00
2023-05-13T22:32:26.369Z,840.40
2023-05-13T22:34:55.325Z,202.80
2023-05-13T22:37:24.416Z,1221.75
2023-05-13T22:39:51.660Z,1602.60
2023-05-13T22:42:19.889Z,2928.75
2023-05-13T22:44:49.838Z,2732.80
2023-05-13T22:47:17.531Z,1918.80
2023-05-13T22:49:44.827Z,2860.40
2023-05-13T22:52:12.370Z,1121.75
2023-05-13T22:54:39.952Z,1074.80
2023-05-13T22:57:07.691Z,1570.00
2023-05-13T22:59:35.981Z,2517.60
2023-05-13T23:02:08.377Z,923.20
2023-05-13T23:04:36.160Z,639.60
2023-05-13T23:07:03.905Z,2374.40
2023-05-13T23:09:31.616Z,106.00
2023-05-13T23:12:00.010Z,752.00
2023-05-13T23:14:29.564Z,692.40
2023-05-13T23:16:57.557Z,826.20
2023-05-13T23:19:26.077Z,916.40
2023-05-13T23:21:54.442Z,506.40
2023-05-13T23:24:22.593Z,117.20
2023-05-13T23:26:53.414Z,179.00
2023-05-13T23:29:27.910Z,124.80
2023-05-13T23:31:55.753Z,3626.75
2023-05-13T23:34:23.274Z,1520.00
2023-05-13T23:36:52.224Z,1146.00
2023-05-13T23:39:26.210Z,1575.75
2023-05-13T23:41:53.475Z,125.50
2023-05-13T23:44:20.826Z,1519.60
2023-05-13T23:46:50.766Z,1159.60
2023-05-13T23:49:19.353Z,2330.20
2023-05-13T23:51:50.437Z,2624.20
2023-05-13T23:54:19.306Z,2330.00
2023-05-13T23:56:47.086Z,855.00
2023-05-13T23:59:15.825Z,1751.20
